sensor_id;sensor_type;location;lat;lon;timestamp;pressure;altitude;pressure_sealevel;temperature;humidity
12636;BME280;6383;50.830;7.210;2023-07-02T00:00:17;100063.16;;;20.13;78.96
12636;BME280;6383;50.830;7.210;2023-07-02T00:02:46;100063.22;;;20.20;78.79
12636;BME280;6383;50.830;7.210;2023-07-02T00:05:15;100051.88;;;20.29;79.46
12636;BME280;6383;50.830;7.210;2023-07-02T00:07:44;100058.72;;;20.38;79.07
12636;BME280;6383;50.830;7.210;2023-07-02T00:10:12;100057.22;;;20.45;78.19
12636;BME280;6383;50.830;7.210;2023-07-02T00:12:40;100056.91;;;20.53;77.96
12636;BME280;6383;50.830;7.210;2023-07-02T00:15:07;100055.00;;;20.61;78.02
12636;BME280;6383;50.830;7.210;2023-07-02T00:17:37;100060.22;;;20.69;77.99
12636;BME280;6383;50.830;7.210;2023-07-02T00:20:08;100058.72;;;20.75;77.76
12636;BME280;6383;50.830;7.210;2023-07-02T00:22:41;100056.38;;;20.81;77.47
12636;BME280;6383;50.830;7.210;2023-07-02T00:25:13;100059.19;;;20.85;77.11
12636;BME280;6383;50.830;7.210;2023-07-02T00:27:41;100064.38;;;20.90;77.19
12636;BME280;6383;50.830;7.210;2023-07-02T00:30:11;100057.28;;;20.92;76.84
12636;BME280;6383;50.830;7.210;2023-07-02T00:32:41;100060.03;;;20.92;75.92
12636;BME280;6383;50.830;7.210;2023-07-02T00:35:09;100052.13;;;20.91;75.72
12636;BME280;6383;50.830;7.210;2023-07-02T00:37:37;100065.56;;;20.92;75.58
12636;BME280;6383;50.830;7.210;2023-07-02T00:40:07;100053.72;;;20.92;75.71
12636;BME280;6383;50.830;7.210;2023-07-02T00:42:37;100059.63;;;20.90;74.96
12636;BME280;6383;50.830;7.210;2023-07-02T00:45:07;100056.88;;;20.90;75.20
12636;BME280;6383;50.830;7.210;2023-07-02T00:47:35;100056.88;;;20.90;74.92
12636;BME280;6383;50.830;7.210;2023-07-02T00:50:06;100064.31;;;20.86;74.40
12636;BME280;6383;50.830;7.210;2023-07-02T00:52:37;100052.00;;;20.80;73.67
12636;BME280;6383;50.830;7.210;2023-07-02T00:55:06;100053.59;;;20.81;74.66
12636;BME280;6383;50.830;7.210;2023-07-02T00:57:33;100060.72;;;20.82;74.46
12636;BME280;6383;50.830;7.210;2023-07-02T01:00:01;100054.03;;;20.83;74.81
12636;BME280;6383;50.830;7.210;2023-07-02T01:02:29;100049.66;;;20.82;74.20
12636;BME280;6383;50.830;7.210;2023-07-02T01:04:57;100054.44;;;20.85;74.01
12636;BME280;6383;50.830;7.210;2023-07-02T01:07:26;100050.88;;;20.85;74.34
12636;BME280;6383;50.830;7.210;2023-07-02T01:09:55;100059.19;;;20.85;74.11
12636;BME280;6383;50.830;7.210;2023-07-02T01:12:24;100061.91;;;20.81;73.70
12636;BME280;6383;50.830;7.210;2023-07-02T01:14:56;100062.28;;;20.80;74.25
12636;BME280;6383;50.830;7.210;2023-07-02T01:17:27;100064.66;;;20.81;73.63
12636;BME280;6383;50.830;7.210;2023-07-02T01:20:08;100058.75;;;20.83;74.10
12636;BME280;6383;50.830;7.210;2023-07-02T01:22:36;100064.66;;;20.81;74.04
12636;BME280;6383;50.830;7.210;2023-07-02T01:25:05;100059.88;;;20.74;73.73
12636;BME280;6383;50.830;7.210;2023-07-02T01:30:04;100063.81;;;20.73;74.03
12636;BME280;6383;50.830;7.210;2023-07-02T01:32:33;100056.19;;;20.63;73.37
12636;BME280;6383;50.830;7.210;2023-07-02T01:35:02;100059.75;;;20.60;74.40
12636;BME280;6383;50.830;7.210;2023-07-02T01:37:33;100061.34;;;20.61;73.90
12636;BME280;6383;50.830;7.210;2023-07-02T01:40:04;100058.94;;;20.60;74.28
12636;BME280;6383;50.830;7.210;2023-07-02T01:42:34;100059.38;;;20.62;74.60
12636;BME280;6383;50.830;7.210;2023-07-02T01:45:04;100064.50;;;20.63;74.95
12636;BME280;6383;50.830;7.210;2023-07-02T01:47:33;100058.16;;;20.63;74.23
12636;BME280;6383;50.830;7.210;2023-07-02T01:50:03;100059.38;;;20.65;73.87
12636;BME280;6383;50.830;7.210;2023-07-02T01:52:33;100057.44;;;20.69;73.97
12636;BME280;6383;50.830;7.210;2023-07-02T01:55:03;100059.03;;;20.70;73.49
12636;BME280;6383;50.830;7.210;2023-07-02T01:57:32;100065.00;;;20.72;73.52
12636;BME280;6383;50.830;7.210;2023-07-02T02:00:01;100064.16;;;20.68;73.22
12636;BME280;6383;50.830;7.210;2023-07-02T02:02:29;100066.13;;;20.68;72.98
12636;BME280;6383;50.830;7.210;2023-07-02T02:04:57;100064.50;;;20.63;72.82
12636;BME280;6383;50.830;7.210;2023-07-02T02:07:26;100058.22;;;20.66;72.25
12636;BME280;6383;50.830;7.210;2023-07-02T02:09:55;100064.91;;;20.62;71.67
12636;BME280;6383;50.830;7.210;2023-07-02T02:12:22;100062.13;;;20.62;71.78
12636;BME280;6383;50.830;7.210;2023-07-02T02:14:51;100071.97;;;20.59;71.25
12636;BME280;6383;50.830;7.210;2023-07-02T02:17:19;100078.31;;;20.60;70.79
12636;BME280;6383;50.830;7.210;2023-07-02T02:19:48;100088.09;;;20.54;70.02
12636;BME280;6383;50.830;7.210;2023-07-02T02:22:15;100079.75;;;20.50;69.96
12636;BME280;6383;50.830;7.210;2023-07-02T02:24:43;100071.03;;;20.45;68.95
12636;BME280;6383;50.830;7.210;2023-07-02T02:27:12;100072.59;;;20.42;69.36
12636;BME280;6383;50.830;7.210;2023-07-02T02:29:40;100083.25;;;20.44;69.54
12636;BME280;6383;50.830;7.210;2023-07-02T02:32:09;100083.59;;;20.38;68.97
12636;BME280;6383;50.830;7.210;2023-07-02T02:34:37;100076.91;;;20.39;69.49
12636;BME280;6383;50.830;7.210;2023-07-02T02:37:06;100079.28;;;20.41;69.31
12636;BME280;6383;50.830;7.210;2023-07-02T02:39:34;100074.50;;;20.38;69.01
12636;BME280;6383;50.830;7.210;2023-07-02T02:42:03;100078.13;;;20.42;68.54
12636;BME280;6383;50.830;7.210;2023-07-02T02:44:34;100080.13;;;20.45;68.93
12636;BME280;6383;50.830;7.210;2023-07-02T02:47:03;100084.88;;;20.48;68.21
12636;BME280;6383;50.830;7.210;2023-07-02T02:49:31;100084.13;;;20.51;68.90
12636;BME280;6383;50.830;7.210;2023-07-02T02:52:00;100081.41;;;20.55;68.30
12636;BME280;6383;50.830;7.210;2023-07-02T02:54:28;100072.31;;;20.54;67.86
12636;BME280;6383;50.830;7.210;2023-07-02T02:56:55;100085.38;;;20.57;67.79
12636;BME280;6383;50.830;7.210;2023-07-02T02:59:23;100076.72;;;20.59;67.67
12636;BME280;6383;50.830;7.210;2023-07-02T03:01:53;100077.09;;;20.57;67.22
12636;BME280;6383;50.830;7.210;2023-07-02T03:04:22;100084.59;;;20.57;66.68
12636;BME280;6383;50.830;7.210;2023-07-02T03:06:52;100077.88;;;20.58;67.14
12636;BME280;6383;50.830;7.210;2023-07-02T03:09:21;100084.22;;;20.58;66.83
12636;BME280;6383;50.830;7.210;2023-07-02T03:11:49;100084.63;;;20.60;67.00
12636;BME280;6383;50.830;7.210;2023-07-02T03:14:18;100086.59;;;20.60;67.02
12636;BME280;6383;50.830;7.210;2023-07-02T03:16:46;100080.28;;;20.59;66.57
12636;BME280;6383;50.830;7.210;2023-07-02T03:19:15;100082.25;;;20.59;66.90
12636;BME280;6383;50.830;7.210;2023-07-02T03:21:44;100077.09;;;20.57;66.73
12636;BME280;6383;50.830;7.210;2023-07-02T03:24:12;100084.59;;;20.57;66.65
12636;BME280;6383;50.830;7.210;2023-07-02T03:26:40;100084.97;;;20.55;67.72
12636;BME280;6383;50.830;7.210;2023-07-02T03:29:09;100085.28;;;20.50;67.48
12636;BME280;6383;50.830;7.210;2023-07-02T03:31:38;100082.44;;;20.39;67.26
12636;BME280;6383;50.830;7.210;2023-07-02T03:34:08;100094.19;;;20.33;67.38
12636;BME280;6383;50.830;7.210;2023-07-02T03:36:39;100103.50;;;20.21;68.75
12636;BME280;6383;50.830;7.210;2023-07-02T03:39:08;100107.31;;;20.10;68.57
12636;BME280;6383;50.830;7.210;2023-07-02T03:41:37;100114.00;;;20.08;67.69
12636;BME280;6383;50.830;7.210;2023-07-02T03:44:05;100116.44;;;20.14;68.33
12636;BME280;6383;50.830;7.210;2023-07-02T03:46:34;100120.06;;;20.18;68.40
12636;BME280;6383;50.830;7.210;2023-07-02T03:49:04;100114.53;;;20.21;68.84
12636;BME280;6383;50.830;7.210;2023-07-02T03:51:33;100115.28;;;20.18;68.81
12636;BME280;6383;50.830;7.210;2023-07-02T03:54:01;100116.50;;;20.21;69.54
12636;BME280;6383;50.830;7.210;2023-07-02T03:56:30;100124.84;;;20.24;69.10
12636;BME280;6383;50.830;7.210;2023-07-02T03:58:58;100130.75;;;20.23;68.17
12636;BME280;6383;50.830;7.210;2023-07-02T04:01:26;100122.09;;;20.24;68.55
12636;BME280;6383;50.830;7.210;2023-07-02T04:03:56;100124.84;;;20.24;69.21
12636;BME280;6383;50.830;7.210;2023-07-02T04:06:25;100133.16;;;20.24;69.06
12636;BME280;6383;50.830;7.210;2023-07-02T04:08:54;100125.69;;;20.28;69.16
12636;BME280;6383;50.830;7.210;2023-07-02T04:11:24;100126.88;;;20.27;69.04
12636;BME280;6383;50.830;7.210;2023-07-02T04:13:53;100127.91;;;20.16;68.25
12636;BME280;6383;50.830;7.210;2023-07-02T04:16:20;100137.38;;;20.15;68.47
12636;BME280;6383;50.830;7.210;2023-07-02T04:18:49;100137.75;;;20.13;68.04
12636;BME280;6383;50.830;7.210;2023-07-02T04:21:18;100149.16;;;20.12;68.17
12636;BME280;6383;50.830;7.210;2023-07-02T04:23:47;100148.88;;;20.20;67.73
12636;BME280;6383;50.830;7.210;2023-07-02T04:26:16;100149.31;;;20.22;67.36
12636;BME280;6383;50.830;7.210;2023-07-02T04:28:47;100151.63;;;20.17;67.13
12636;BME280;6383;50.830;7.210;2023-07-02T04:31:15;100147.63;;;20.14;66.81
12636;BME280;6383;50.830;7.210;2023-07-02T04:33:44;100153.91;;;20.11;66.91
12636;BME280;6383;50.830;7.210;2023-07-02T04:36:13;100158.19;;;20.08;66.61
12636;BME280;6383;50.830;7.210;2023-07-02T04:38:42;100158.56;;;20.07;66.84
12636;BME280;6383;50.830;7.210;2023-07-02T04:41:11;100164.16;;;20.11;66.48
12636;BME280;6383;50.830;7.210;2023-07-02T04:43:40;100162.25;;;20.15;67.32
12636;BME280;6383;50.830;7.210;2023-07-02T04:46:09;100164.94;;;20.11;66.75
12636;BME280;6383;50.830;7.210;2023-07-02T04:48:40;100162.63;;;20.13;66.78
12636;BME280;6383;50.830;7.210;2023-07-02T04:51:07;100171.69;;;20.14;66.60
12636;BME280;6383;50.830;7.210;2023-07-02T04:53:36;100175.63;;;20.13;65.70
12636;BME280;6383;50.830;7.210;2023-07-02T04:56:06;100173.59;;;20.10;66.05
12636;BME280;6383;50.830;7.210;2023-07-02T04:58:35;100181.75;;;19.99;66.26
12636;BME280;6383;50.830;7.210;2023-07-02T05:01:04;100169.53;;;20.00;66.93
12636;BME280;6383;50.830;7.210;2023-07-02T05:03:33;100176.28;;;20.02;66.78
12636;BME280;6383;50.830;7.210;2023-07-02T05:06:03;100171.88;;;19.98;67.33
12636;BME280;6383;50.830;7.210;2023-07-02T05:08:30;100176.59;;;19.97;68.13
12636;BME280;6383;50.830;7.210;2023-07-02T05:10:58;100178.19;;;19.98;68.17
12636;BME280;6383;50.830;7.210;2023-07-02T05:13:27;100180.91;;;19.95;68.36
12636;BME280;6383;50.830;7.210;2023-07-02T05:15:56;100184.84;;;19.94;67.35
12636;BME280;6383;50.830;7.210;2023-07-02T05:18:24;100187.59;;;19.94;67.58
12636;BME280;6383;50.830;7.210;2023-07-02T05:20:55;100188.44;;;19.98;67.23
12636;BME280;6383;50.830;7.210;2023-07-02T05:23:22;100190.91;;;20.03;68.50
12636;BME280;6383;50.830;7.210;2023-07-02T05:25:51;100198.63;;;19.94;65.74
12636;BME280;6383;50.830;7.210;2023-07-02T05:28:20;100190.94;;;19.80;67.45
12636;BME280;6383;50.830;7.210;2023-07-02T05:30:49;100194.94;;;19.83;67.74
12636;BME280;6383;50.830;7.210;2023-07-02T05:33:17;100202.84;;;19.84;67.08
12636;BME280;6383;50.830;7.210;2023-07-02T05:35:46;100199.28;;;19.84;66.96
12636;BME280;6383;50.830;7.210;2023-07-02T05:38:15;100197.75;;;19.86;67.06
12636;BME280;6383;50.830;7.210;2023-07-02T05:40:44;100204.00;;;19.83;67.12
12636;BME280;6383;50.830;7.210;2023-07-02T05:43:13;100199.75;;;19.89;67.76
12636;BME280;6383;50.830;7.210;2023-07-02T05:45:41;100198.69;;;19.97;67.09
12636;BME280;6383;50.830;7.210;2023-07-02T05:48:10;100203.06;;;19.98;67.68
12636;BME280;6383;50.830;7.210;2023-07-02T05:50:39;100206.63;;;19.99;66.95
12636;BME280;6383;50.830;7.210;2023-07-02T05:53:07;100208.84;;;19.90;67.36
12636;BME280;6383;50.830;7.210;2023-07-02T05:55:37;100204.91;;;19.91;67.17
12636;BME280;6383;50.830;7.210;2023-07-02T05:58:06;100208.91;;;19.93;67.61
12636;BME280;6383;50.830;7.210;2023-07-02T06:00:35;100214.00;;;19.91;67.88
12636;BME280;6383;50.830;7.210;2023-07-02T06:03:04;100216.31;;;19.89;68.04
12636;BME280;6383;50.830;7.210;2023-07-02T06:05:33;100214.78;;;19.92;67.95
12636;BME280;6383;50.830;7.210;2023-07-02T06:08:02;100217.97;;;19.94;67.52
12636;BME280;6383;50.830;7.210;2023-07-02T06:10:31;100214.78;;;19.92;67.60
12636;BME280;6383;50.830;7.210;2023-07-02T06:13:00;100217.53;;;19.88;67.54
12636;BME280;6383;50.830;7.210;2023-07-02T06:15:28;100220.75;;;19.94;67.61
12636;BME280;6383;50.830;7.210;2023-07-02T06:17:58;100224.31;;;19.94;67.90
12636;BME280;6383;50.830;7.210;2023-07-02T06:20:26;100222.72;;;19.93;67.60
12636;BME280;6383;50.830;7.210;2023-07-02T06:22:54;100223.88;;;19.92;67.55
12636;BME280;6383;50.830;7.210;2023-07-02T06:25:22;100225.16;;;19.98;67.33
12636;BME280;6383;50.830;7.210;2023-07-02T06:27:50;100226.31;;;19.97;67.74
12636;BME280;6383;50.830;7.210;2023-07-02T06:30:21;100233.06;;;20.00;67.79
12636;BME280;6383;50.830;7.210;2023-07-02T06:32:50;100232.84;;;20.12;67.90
12636;BME280;6383;50.830;7.210;2023-07-02T06:35:19;100231.63;;;20.10;66.21
12636;BME280;6383;50.830;7.210;2023-07-02T06:37:48;100239.19;;;20.13;66.51
12636;BME280;6383;50.830;7.210;2023-07-02T06:40:17;100243.91;;;20.12;66.35
12636;BME280;6383;50.830;7.210;2023-07-02T06:42:45;100243.19;;;20.19;66.66
12636;BME280;6383;50.830;7.210;2023-07-02T06:45:15;100241.66;;;20.21;66.52
12636;BME280;6383;50.830;7.210;2023-07-02T06:47:44;100253.19;;;20.27;66.60
12636;BME280;6383;50.830;7.210;2023-07-02T06:50:11;100249.59;;;20.23;65.15
12636;BME280;6383;50.830;7.210;2023-07-02T06:52:40;100254.31;;;20.22;64.72
12636;BME280;6383;50.830;7.210;2023-07-02T06:55:09;100251.59;;;20.26;64.91
12636;BME280;6383;50.830;7.210;2023-07-02T06:57:42;100251.31;;;20.34;65.92
12636;BME280;6383;50.830;7.210;2023-07-02T07:00:12;100257.75;;;20.38;65.33
12636;BME280;6383;50.830;7.210;2023-07-02T07:02:41;100262.47;;;20.38;64.96
12636;BME280;6383;50.830;7.210;2023-07-02T07:05:12;100265.91;;;20.31;62.90
12636;BME280;6383;50.830;7.210;2023-07-02T07:07:41;100262.78;;;20.33;63.25
12636;BME280;6383;50.830;7.210;2023-07-02T07:10:10;100263.97;;;20.35;63.34
12636;BME280;6383;50.830;7.210;2023-07-02T07:12:39;100264.31;;;20.30;62.98
12636;BME280;6383;50.830;7.210;2023-07-02T07:15:08;100273.84;;;20.33;62.92
12636;BME280;6383;50.830;7.210;2023-07-02T07:17:36;100268.00;;;20.38;63.85
12636;BME280;6383;50.830;7.210;2023-07-02T07:20:05;100263.00;;;20.47;63.32
12636;BME280;6383;50.830;7.210;2023-07-02T07:22:36;100268.31;;;20.59;63.36
12636;BME280;6383;50.830;7.210;2023-07-02T07:25:04;100270.72;;;20.64;62.68
12636;BME280;6383;50.830;7.210;2023-07-02T07:27:33;100269.53;;;20.65;61.30
12636;BME280;6383;50.830;7.210;2023-07-02T07:30:01;100273.47;;;20.64;60.04
12636;BME280;6383;50.830;7.210;2023-07-02T07:32:29;100273.16;;;20.69;60.35
12636;BME280;6383;50.830;7.210;2023-07-02T07:34:58;100267.63;;;20.69;59.43
12636;BME280;6383;50.830;7.210;2023-07-02T07:37:26;100270.88;;;20.75;58.22
12636;BME280;6383;50.830;7.210;2023-07-02T07:39:55;100276.66;;;20.66;56.94
12636;BME280;6383;50.830;7.210;2023-07-02T07:42:24;100277.81;;;20.62;57.06
12636;BME280;6383;50.830;7.210;2023-07-02T07:44:52;100284.16;;;20.62;57.37
12636;BME280;6383;50.830;7.210;2023-07-02T07:47:21;100278.31;;;20.71;56.06
12636;BME280;6383;50.830;7.210;2023-07-02T07:49:50;100279.88;;;20.68;56.60
12636;BME280;6383;50.830;7.210;2023-07-02T07:52:18;100280.78;;;20.76;56.82
12636;BME280;6383;50.830;7.210;2023-07-02T07:54:46;100283.66;;;20.87;57.44
12636;BME280;6383;50.830;7.210;2023-07-02T07:57:16;100283.34;;;20.92;56.54
12636;BME280;6383;50.830;7.210;2023-07-02T07:59:45;100286.91;;;20.92;56.20
12636;BME280;6383;50.830;7.210;2023-07-02T08:02:15;100286.44;;;20.87;55.80
12636;BME280;6383;50.830;7.210;2023-07-02T08:04:44;100290.00;;;20.87;55.86
12636;BME280;6383;50.830;7.210;2023-07-02T08:07:12;100296.38;;;20.91;56.39
12636;BME280;6383;50.830;7.210;2023-07-02T08:09:41;100290.06;;;20.94;55.45
12636;BME280;6383;50.830;7.210;2023-07-02T08:12:09;100291.72;;;20.99;55.23
12636;BME280;6383;50.830;7.210;2023-07-02T08:14:40;100292.19;;;21.04;55.19
12636;BME280;6383;50.830;7.210;2023-07-02T08:17:09;100290.75;;;21.18;55.94
12636;BME280;6383;50.830;7.210;2023-07-02T08:19:38;100288.84;;;21.22;55.83
12636;BME280;6383;50.830;7.210;2023-07-02T08:22:06;100299.22;;;21.32;54.55
12636;BME280;6383;50.830;7.210;2023-07-02T08:24:35;100297.31;;;21.39;54.89
12636;BME280;6383;50.830;7.210;2023-07-02T08:27:04;100299.38;;;21.46;54.47
12636;BME280;6383;50.830;7.210;2023-07-02T08:29:34;100304.91;;;21.46;52.55
12636;BME280;6383;50.830;7.210;2023-07-02T08:32:05;100306.09;;;21.45;51.87
12636;BME280;6383;50.830;7.210;2023-07-02T08:34:34;100313.91;;;21.36;51.30
12636;BME280;6383;50.830;7.210;2023-07-02T08:37:03;100320.16;;;21.29;51.42
12636;BME280;6383;50.830;7.210;2023-07-02T08:39:32;100312.69;;;21.33;50.72
12636;BME280;6383;50.830;7.210;2023-07-02T08:42:01;100319.88;;;21.41;51.45
12636;BME280;6383;50.830;7.210;2023-07-02T08:44:29;100318.72;;;21.42;51.85
12636;BME280;6383;50.830;7.210;2023-07-02T08:46:57;100316.78;;;21.46;52.24
12636;BME280;6383;50.830;7.210;2023-07-02T08:49:28;100321.63;;;21.57;52.72
12636;BME280;6383;50.830;7.210;2023-07-02T08:51:57;100321.22;;;21.55;51.91
12636;BME280;6383;50.830;7.210;2023-07-02T08:54:26;100320.41;;;21.51;51.68
12636;BME280;6383;50.830;7.210;2023-07-02T08:56:55;100323.19;;;21.54;52.27
12636;BME280;6383;50.830;7.210;2023-07-02T08:59:23;100314.53;;;21.59;52.46
12636;BME280;6383;50.830;7.210;2023-07-02T09:01:53;100317.00;;;21.68;52.72
12636;BME280;6383;50.830;7.210;2023-07-02T09:04:23;100324.19;;;21.76;52.04
12636;BME280;6383;50.830;7.210;2023-07-02T09:07:04;100330.09;;;21.71;50.15
12636;BME280;6383;50.830;7.210;2023-07-02T09:09:32;100335.25;;;21.72;50.65
12636;BME280;6383;50.830;7.210;2023-07-02T09:12:01;100331.69;;;21.72;49.71
12636;BME280;6383;50.830;7.210;2023-07-02T09:14:31;100336.00;;;21.66;48.47
12636;BME280;6383;50.830;7.210;2023-07-02T09:17:05;100332.78;;;21.64;48.11
12636;BME280;6383;50.830;7.210;2023-07-02T09:19:36;100338.72;;;21.62;47.86
12636;BME280;6383;50.830;7.210;2023-07-02T09:22:06;100342.66;;;21.61;48.50
12636;BME280;6383;50.830;7.210;2023-07-02T09:24:35;100332.41;;;21.65;48.14
12636;BME280;6383;50.830;7.210;2023-07-02T09:27:04;100341.91;;;21.68;47.60
12636;BME280;6383;50.830;7.210;2023-07-02T09:29:34;100341.53;;;21.69;48.19
12636;BME280;6383;50.830;7.210;2023-07-02T09:32:04;100333.22;;;21.66;48.04
12636;BME280;6383;50.830;7.210;2023-07-02T09:34:36;100341.47;;;21.62;48.24
12636;BME280;6383;50.830;7.210;2023-07-02T09:37:07;100343.19;;;21.74;49.47
12636;BME280;6383;50.830;7.210;2023-07-02T09:39:36;100343.56;;;21.72;48.80
12636;BME280;6383;50.830;7.210;2023-07-02T09:42:06;100336.47;;;21.75;48.79
12636;BME280;6383;50.830;7.210;2023-07-02T09:44:36;100326.63;;;21.81;48.88
12636;BME280;6383;50.830;7.210;2023-07-02T09:47:05;100329.91;;;21.94;49.54
12636;BME280;6383;50.830;7.210;2023-07-02T09:49:35;100325.53;;;21.93;49.39
12636;BME280;6383;50.830;7.210;2023-07-02T09:52:07;100331.97;;;22.00;50.16
12636;BME280;6383;50.830;7.210;2023-07-02T09:54:37;100338.69;;;21.99;48.64
12636;BME280;6383;50.830;7.210;2023-07-02T09:57:07;100327.63;;;22.03;48.51
12636;BME280;6383;50.830;7.210;2023-07-02T09:59:40;100331.63;;;22.05;49.51
12636;BME280;6383;50.830;7.210;2023-07-02T10:02:09;100331.63;;;22.05;47.98
12636;BME280;6383;50.830;7.210;2023-07-02T10:04:41;100331.63;;;22.05;48.33
12636;BME280;6383;50.830;7.210;2023-07-02T10:07:11;100328.88;;;22.09;48.75
12636;BME280;6383;50.830;7.210;2023-07-02T10:09:42;100330.84;;;22.08;48.98
12636;BME280;6383;50.830;7.210;2023-07-02T10:12:20;100334.03;;;22.10;48.67
12636;BME280;6383;50.830;7.210;2023-07-02T10:14:50;100339.19;;;22.12;48.94
12636;BME280;6383;50.830;7.210;2023-07-02T10:17:24;100340.44;;;22.18;48.28
12636;BME280;6383;50.830;7.210;2023-07-02T10:19:54;100337.19;;;22.09;48.37
12636;BME280;6383;50.830;7.210;2023-07-02T10:22:24;100333.63;;;22.08;48.30
12636;BME280;6383;50.830;7.210;2023-07-02T10:24:54;100326.53;;;22.14;48.49
12636;BME280;6383;50.830;7.210;2023-07-02T10:27:35;100324.19;;;22.16;48.09
12636;BME280;6383;50.830;7.210;2023-07-02T10:30:06;100325.03;;;22.28;48.88
12636;BME280;6383;50.830;7.210;2023-07-02T10:32:37;100325.06;;;22.31;48.47
12636;BME280;6383;50.830;7.210;2023-07-02T10:35:14;100324.38;;;22.45;48.65
12636;BME280;6383;50.830;7.210;2023-07-02T10:37:44;100331.47;;;22.42;48.33
12636;BME280;6383;50.830;7.210;2023-07-02T10:40:13;100333.53;;;22.49;49.37
12636;BME280;6383;50.830;7.210;2023-07-02T10:42:46;100329.56;;;22.50;48.03
12636;BME280;6383;50.830;7.210;2023-07-02T10:45:16;100327.16;;;22.45;48.13
12636;BME280;6383;50.830;7.210;2023-07-02T10:47:46;100327.22;;;22.52;48.11
12636;BME280;6383;50.830;7.210;2023-07-02T10:50:16;100334.34;;;22.57;46.13
12636;BME280;6383;50.830;7.210;2023-07-02T10:52:47;100333.56;;;22.60;45.54
12636;BME280;6383;50.830;7.210;2023-07-02T10:55:18;100342.31;;;22.62;45.31
12636;BME280;6383;50.830;7.210;2023-07-02T10:57:48;100329.97;;;22.52;45.53
12636;BME280;6383;50.830;7.210;2023-07-02T11:00:19;100334.75;;;22.55;45.22
12636;BME280;6383;50.830;7.210;2023-07-02T11:02:48;100333.59;;;22.63;45.62
12636;BME280;6383;50.830;7.210;2023-07-02T11:05:17;100341.94;;;22.63;45.17
12636;BME280;6383;50.830;7.210;2023-07-02T11:07:47;100325.25;;;22.60;43.76
12636;BME280;6383;50.830;7.210;2023-07-02T11:10:22;100324.84;;;22.54;44.12
12636;BME280;6383;50.830;7.210;2023-07-02T11:12:52;100327.22;;;22.56;43.91
12636;BME280;6383;50.830;7.210;2023-07-02T11:15:21;100336.72;;;22.58;44.37
12636;BME280;6383;50.830;7.210;2023-07-02T11:17:50;100324.13;;;22.71;43.18
12636;BME280;6383;50.830;7.210;2023-07-02T11:20:19;100329.38;;;22.80;42.08
12636;BME280;6383;50.830;7.210;2023-07-02T11:22:47;100330.97;;;22.81;42.63
12636;BME280;6383;50.830;7.210;2023-07-02T11:25:18;100333.34;;;22.86;42.69
12636;BME280;6383;50.830;7.210;2023-07-02T11:27:47;100343.69;;;22.89;42.56
12636;BME280;6383;50.830;7.210;2023-07-02T11:30:17;100338.59;;;22.98;41.79
12636;BME280;6383;50.830;7.210;2023-07-02T11:32:48;100344.16;;;23.05;42.33
12636;BME280;6383;50.830;7.210;2023-07-02T11:35:18;100331.03;;;23.02;42.23
12636;BME280;6383;50.830;7.210;2023-07-02T11:37:49;100340.19;;;23.06;43.53
12636;BME280;6383;50.830;7.210;2023-07-02T11:40:17;100350.13;;;23.07;43.32
12636;BME280;6383;50.830;7.210;2023-07-02T11:42:47;100339.00;;;23.07;43.34
12636;BME280;6383;50.830;7.210;2023-07-02T11:45:16;100361.22;;;23.07;43.53
12636;BME280;6383;50.830;7.210;2023-07-02T11:47:44;100346.94;;;23.05;43.65
12636;BME280;6383;50.830;7.210;2023-07-02T11:50:13;100347.69;;;23.02;43.98
12636;BME280;6383;50.830;7.210;2023-07-02T11:52:42;100340.16;;;23.03;44.44
12636;BME280;6383;50.830;7.210;2023-07-02T11:55:12;100346.53;;;23.03;44.41
12636;BME280;6383;50.830;7.210;2023-07-02T11:57:41;100351.28;;;23.06;45.42
12636;BME280;6383;50.830;7.210;2023-07-02T12:00:11;100342.22;;;23.13;45.64
12636;BME280;6383;50.830;7.210;2023-07-02T12:02:38;100341.81;;;23.18;44.90
12636;BME280;6383;50.830;7.210;2023-07-02T12:05:08;100345.03;;;23.27;45.23
12636;BME280;6383;50.830;7.210;2023-07-02T12:07:37;100338.69;;;23.23;45.04
12636;BME280;6383;50.830;7.210;2023-07-02T12:10:06;100348.19;;;23.22;45.40
12636;BME280;6383;50.830;7.210;2023-07-02T12:12:35;100349.00;;;23.23;43.67
12636;BME280;6383;50.830;7.210;2023-07-02T12:15:05;100364.88;;;23.26;41.30
12636;BME280;6383;50.830;7.210;2023-07-02T12:17:34;100356.53;;;23.26;41.73
12636;BME280;6383;50.830;7.210;2023-07-02T12:20:03;100365.25;;;23.24;41.77
12636;BME280;6383;50.830;7.210;2023-07-02T12:22:31;100356.94;;;23.24;41.09
12636;BME280;6383;50.830;7.210;2023-07-02T12:24:59;100366.44;;;23.23;41.98
12636;BME280;6383;50.830;7.210;2023-07-02T12:27:28;100371.25;;;23.37;41.19
12636;BME280;6383;50.830;7.210;2023-07-02T12:29:57;100360.16;;;23.40;41.25
12636;BME280;6383;50.830;7.210;2023-07-02T12:32:25;100364.16;;;23.43;40.60
12636;BME280;6383;50.830;7.210;2023-07-02T12:34:53;100362.16;;;23.43;39.18
12636;BME280;6383;50.830;7.210;2023-07-02T12:37:22;100353.81;;;23.43;39.94
12636;BME280;6383;50.830;7.210;2023-07-02T12:39:51;100362.53;;;23.45;39.77
12636;BME280;6383;50.830;7.210;2023-07-02T12:42:20;100358.97;;;23.45;39.50
12636;BME280;6383;50.830;7.210;2023-07-02T12:44:49;100363.34;;;23.49;39.94
12636;BME280;6383;50.830;7.210;2023-07-02T12:47:19;100362.56;;;23.49;39.67
12636;BME280;6383;50.830;7.210;2023-07-02T12:49:46;100370.53;;;23.54;40.30
12636;BME280;6383;50.830;7.210;2023-07-02T12:52:15;100364.22;;;23.64;39.67
12636;BME280;6383;50.830;7.210;2023-07-02T12:54:43;100363.84;;;23.69;39.54
12636;BME280;6383;50.830;7.210;2023-07-02T12:57:11;100369.78;;;23.75;40.16
12636;BME280;6383;50.830;7.210;2023-07-02T12:59:40;100365.44;;;23.81;40.07
12636;BME280;6383;50.830;7.210;2023-07-02T13:02:09;100359.09;;;23.91;39.41
12636;BME280;6383;50.830;7.210;2023-07-02T13:04:40;100365.03;;;23.82;38.71
12636;BME280;6383;50.830;7.210;2023-07-02T13:07:08;100366.63;;;23.83;39.27
12636;BME280;6383;50.830;7.210;2023-07-02T13:09:35;100353.94;;;23.86;37.62
12636;BME280;6383;50.830;7.210;2023-07-02T13:12:03;100367.44;;;23.91;38.08